sensor_id;sensor_type;location;lat;lon;timestamp;P1;durP1;ratioP1;P2;durP2;ratioP2
1140;SDS011;559;48.628;8.924;2023-08-08T00:01:44;119.50;;;114.60;;
1140;SDS011;559;48.628;8.924;2023-08-08T00:04:10;123.10;;;117.95;;
1140;SDS011;559;48.628;8.924;2023-08-08T00:06:37;122.83;;;117.73;;
1140;SDS011;559;48.628;8.924;2023-08-08T00:09:04;119.75;;;114.55;;
1140;SDS011;559;48.628;8.924;2023-08-08T00:11:33;121.23;;;116.23;;
1140;SDS011;559;48.628;8.924;2023-08-08T00:14:02;121.50;;;116.33;;
1140;SDS011;559;48.628;8.924;2023-08-08T00:16:28;124.45;;;119.40;;
1140;SDS011;559;48.628;8.924;2023-08-08T00:18:55;122.63;;;117.43;;
1140;SDS011;559;48.628;8.924;2023-08-08T00:21:21;118.90;;;113.80;;
1140;SDS011;559;48.628;8.924;2023-08-08T00:23:48;120.10;;;115.10;;
1140;SDS011;559;48.628;8.924;2023-08-08T00:26:14;119.93;;;114.90;;
1140;SDS011;559;48.628;8.924;2023-08-08T00:28:42;119.70;;;114.70;;
1140;SDS011;559;48.628;8.924;2023-08-08T00:31:10;118.50;;;113.38;;
1140;SDS011;559;48.628;8.924;2023-08-08T00:33:36;118.67;;;113.57;;
1140;SDS011;559;48.628;8.924;2023-08-08T00:36:03;117.68;;;112.63;;
1140;SDS011;559;48.628;8.924;2023-08-08T00:38:29;118.33;;;113.33;;
1140;SDS011;559;48.628;8.924;2023-08-08T00:40:56;122.93;;;117.70;;
1140;SDS011;559;48.628;8.924;2023-08-08T00:43:22;119.43;;;114.43;;
1140;SDS011;559;48.628;8.924;2023-08-08T00:45:50;120.53;;;115.43;;
1140;SDS011;559;48.628;8.924;2023-08-08T00:48:17;126.05;;;119.68;;
1140;SDS011;559;48.628;8.924;2023-08-08T00:50:44;120.75;;;115.55;;
1140;SDS011;559;48.628;8.924;2023-08-08T00:53:11;119.93;;;114.85;;
1140;SDS011;559;48.628;8.924;2023-08-08T00:55:38;122.70;;;117.63;;
1140;SDS011;559;48.628;8.924;2023-08-08T00:58:05;122.40;;;117.25;;
1140;SDS011;559;48.628;8.924;2023-08-08T01:00:32;119.80;;;114.68;;
1140;SDS011;559;48.628;8.924;2023-08-08T01:03:00;120.65;;;115.55;;
1140;SDS011;559;48.628;8.924;2023-08-08T01:05:26;117.73;;;112.63;;
1140;SDS011;559;48.628;8.924;2023-08-08T01:07:57;120.00;;;114.90;;
1140;SDS011;559;48.628;8.924;2023-08-08T01:10:27;115.80;;;110.70;;
1140;SDS011;559;48.628;8.924;2023-08-08T01:13:00;116.20;;;111.20;;
1140;SDS011;559;48.628;8.924;2023-08-08T01:15:30;119.10;;;113.90;;
1140;SDS011;559;48.628;8.924;2023-08-08T01:18:02;113.80;;;108.80;;
1140;SDS011;559;48.628;8.924;2023-08-08T01:20:30;120.03;;;114.83;;
1140;SDS011;559;48.628;8.924;2023-08-08T01:22:58;117.73;;;112.53;;
1140;SDS011;559;48.628;8.924;2023-08-08T01:25:33;117.10;;;112.00;;
1140;SDS011;559;48.628;8.924;2023-08-08T01:28:01;119.05;;;113.75;;
1140;SDS011;559;48.628;8.924;2023-08-08T01:30:27;118.28;;;112.35;;
1140;SDS011;559;48.628;8.924;2023-08-08T01:32:54;117.00;;;111.80;;
1140;SDS011;559;48.628;8.924;2023-08-08T01:35:20;114.87;;;109.87;;
1140;SDS011;559;48.628;8.924;2023-08-08T01:37:50;115.30;;;110.27;;
1140;SDS011;559;48.628;8.924;2023-08-08T01:40:19;115.53;;;110.53;;
1140;SDS011;559;48.628;8.924;2023-08-08T01:42:48;119.30;;;114.00;;
1140;SDS011;559;48.628;8.924;2023-08-08T01:45:15;114.53;;;109.37;;
1140;SDS011;559;48.628;8.924;2023-08-08T01:47:42;112.17;;;107.07;;
1140;SDS011;559;48.628;8.924;2023-08-08T01:50:11;114.40;;;109.20;;
1140;SDS011;559;48.628;8.924;2023-08-08T01:52:37;115.60;;;110.30;;
1140;SDS011;559;48.628;8.924;2023-08-08T01:55:04;116.67;;;111.47;;
1140;SDS011;559;48.628;8.924;2023-08-08T01:57:31;115.30;;;110.17;;
1140;SDS011;559;48.628;8.924;2023-08-08T01:59:59;118.30;;;112.97;;
1140;SDS011;559;48.628;8.924;2023-08-08T02:02:29;119.35;;;114.07;;
1140;SDS011;559;48.628;8.924;2023-08-08T02:04:55;114.35;;;109.18;;
1140;SDS011;559;48.628;8.924;2023-08-08T02:07:21;113.73;;;108.47;;
1140;SDS011;559;48.628;8.924;2023-08-08T02:09:47;116.45;;;111.20;;
1140;SDS011;559;48.628;8.924;2023-08-08T02:12:15;114.40;;;109.15;;
1140;SDS011;559;48.628;8.924;2023-08-08T02:14:42;114.68;;;109.47;;
1140;SDS011;559;48.628;8.924;2023-08-08T02:17:10;115.30;;;109.97;;
1140;SDS011;559;48.628;8.924;2023-08-08T02:19:36;113.83;;;108.57;;
1140;SDS011;559;48.628;8.924;2023-08-08T02:22:03;115.57;;;110.27;;
1140;SDS011;559;48.628;8.924;2023-08-08T02:24:30;116.90;;;111.50;;
1140;SDS011;559;48.628;8.924;2023-08-08T02:26:57;116.07;;;110.70;;
1140;SDS011;559;48.628;8.924;2023-08-08T02:29:23;112.35;;;106.57;;
1140;SDS011;559;48.628;8.924;2023-08-08T02:31:52;110.97;;;105.80;;
1140;SDS011;559;48.628;8.924;2023-08-08T02:34:20;111.35;;;106.15;;
1140;SDS011;559;48.628;8.924;2023-08-08T02:36:46;108.05;;;102.97;;
1140;SDS011;559;48.628;8.924;2023-08-08T02:39:13;110.55;;;105.35;;
1140;SDS011;559;48.628;8.924;2023-08-08T02:41:39;109.70;;;104.60;;
1140;SDS011;559;48.628;8.924;2023-08-08T02:44:06;106.77;;;101.67;;
1140;SDS011;559;48.628;8.924;2023-08-08T02:46:33;108.75;;;103.55;;
1140;SDS011;559;48.628;8.924;2023-08-08T02:49:01;107.63;;;102.53;;
1140;SDS011;559;48.628;8.924;2023-08-08T02:51:29;107.15;;;101.95;;
1140;SDS011;559;48.628;8.924;2023-08-08T02:53:56;104.67;;;99.57;;
1140;SDS011;559;48.628;8.924;2023-08-08T02:56:22;108.18;;;102.97;;
1140;SDS011;559;48.628;8.924;2023-08-08T02:58:49;104.63;;;99.57;;
1140;SDS011;559;48.628;8.924;2023-08-08T03:01:15;104.68;;;99.68;;
1140;SDS011;559;48.628;8.924;2023-08-08T03:03:42;104.10;;;99.00;;
1140;SDS011;559;48.628;8.924;2023-08-08T03:06:09;105.57;;;100.38;;
1140;SDS011;559;48.628;8.924;2023-08-08T03:08:37;102.60;;;97.50;;
1140;SDS011;559;48.628;8.924;2023-08-08T03:11:03;104.72;;;99.68;;
1140;SDS011;559;48.628;8.924;2023-08-08T03:13:30;103.03;;;97.93;;
1140;SDS011;559;48.628;8.924;2023-08-08T03:15:56;103.72;;;98.57;;
1140;SDS011;559;48.628;8.924;2023-08-08T03:18:23;104.97;;;99.82;;
1140;SDS011;559;48.628;8.924;2023-08-08T03:20:50;104.85;;;99.70;;
1140;SDS011;559;48.628;8.924;2023-08-08T03:23:17;103.47;;;98.28;;
1140;SDS011;559;48.628;8.924;2023-08-08T03:25:45;101.35;;;96.35;;
1140;SDS011;559;48.628;8.924;2023-08-08T03:28:12;102.88;;;97.63;;
1140;SDS011;559;48.628;8.924;2023-08-08T03:30:38;101.63;;;96.63;;
1140;SDS011;559;48.628;8.924;2023-08-08T03:33:05;101.72;;;96.55;;
1140;SDS011;559;48.628;8.924;2023-08-08T03:35:31;100.13;;;95.07;;
1140;SDS011;559;48.628;8.924;2023-08-08T03:37:58;100.18;;;95.13;;
1140;SDS011;559;48.628;8.924;2023-08-08T03:40:24;100.50;;;95.40;;
1140;SDS011;559;48.628;8.924;2023-08-08T03:42:52;97.43;;;92.47;;
1140;SDS011;559;48.628;8.924;2023-08-08T03:45:19;96.88;;;91.88;;
1140;SDS011;559;48.628;8.924;2023-08-08T03:47:45;96.35;;;91.35;;
1140;SDS011;559;48.628;8.924;2023-08-08T03:50:12;101.95;;;96.82;;
1140;SDS011;559;48.628;8.924;2023-08-08T03:52:39;93.55;;;88.70;;
1140;SDS011;559;48.628;8.924;2023-08-08T03:55:05;99.10;;;93.80;;
1140;SDS011;559;48.628;8.924;2023-08-08T03:57:32;99.03;;;93.93;;
1140;SDS011;559;48.628;8.924;2023-08-08T04:00:00;98.67;;;93.57;;
1140;SDS011;559;48.628;8.924;2023-08-08T04:02:27;93.07;;;88.28;;
1140;SDS011;559;48.628;8.924;2023-08-08T04:04:53;91.93;;;87.23;;
1140;SDS011;559;48.628;8.924;2023-08-08T04:07:20;88.60;;;83.87;;
1140;SDS011;559;48.628;8.924;2023-08-08T04:09:46;89.60;;;84.87;;
1140;SDS011;559;48.628;8.924;2023-08-08T04:12:13;97.43;;;92.50;;
1140;SDS011;559;48.628;8.924;2023-08-08T04:14:39;92.67;;;87.97;;
1140;SDS011;559;48.628;8.924;2023-08-08T04:17:07;91.85;;;87.15;;
1140;SDS011;559;48.628;8.924;2023-08-08T04:19:34;93.80;;;89.00;;
1140;SDS011;559;48.628;8.924;2023-08-08T04:22:00;93.18;;;88.28;;
1140;SDS011;559;48.628;8.924;2023-08-08T04:24:27;95.95;;;91.05;;
1140;SDS011;559;48.628;8.924;2023-08-08T04:26:53;92.28;;;87.45;;
1140;SDS011;559;48.628;8.924;2023-08-08T04:29:20;91.37;;;86.67;;
1140;SDS011;559;48.628;8.924;2023-08-08T04:31:46;87.70;;;83.00;;
1140;SDS011;559;48.628;8.924;2023-08-08T04:34:14;89.93;;;84.90;;
1140;SDS011;559;48.628;8.924;2023-08-08T04:36:42;88.05;;;83.35;;
1140;SDS011;559;48.628;8.924;2023-08-08T04:39:08;86.70;;;82.10;;
1140;SDS011;559;48.628;8.924;2023-08-08T04:41:35;91.07;;;86.32;;
1140;SDS011;559;48.628;8.924;2023-08-08T04:44:00;87.20;;;82.50;;
1140;SDS011;559;48.628;8.924;2023-08-08T04:46:27;88.60;;;84.03;;
1140;SDS011;559;48.628;8.924;2023-08-08T04:48:53;88.67;;;83.97;;
1140;SDS011;559;48.628;8.924;2023-08-08T04:51:21;87.57;;;82.77;;
1140;SDS011;559;48.628;8.924;2023-08-08T04:53:48;87.75;;;83.05;;
1140;SDS011;559;48.628;8.924;2023-08-08T04:56:14;88.47;;;83.78;;
1140;SDS011;559;48.628;8.924;2023-08-08T04:58:41;90.32;;;85.63;;
1140;SDS011;559;48.628;8.924;2023-08-08T05:01:07;85.60;;;80.95;;
1140;SDS011;559;48.628;8.924;2023-08-08T05:03:39;84.47;;;79.87;;
1140;SDS011;559;48.628;8.924;2023-08-08T05:06:05;84.55;;;80.05;;
1140;SDS011;559;48.628;8.924;2023-08-08T05:08:33;89.20;;;84.50;;
1140;SDS011;559;48.628;8.924;2023-08-08T05:10:59;89.43;;;84.72;;
1140;SDS011;559;48.628;8.924;2023-08-08T05:13:26;86.78;;;82.07;;
1140;SDS011;559;48.628;8.924;2023-08-08T05:15:53;86.27;;;81.57;;
1140;SDS011;559;48.628;8.924;2023-08-08T05:18:19;84.95;;;80.35;;
1140;SDS011;559;48.628;8.924;2023-08-08T05:20:46;86.55;;;82.00;;
1140;SDS011;559;48.628;8.924;2023-08-08T05:23:12;87.38;;;82.75;;
1140;SDS011;559;48.628;8.924;2023-08-08T05:25:40;86.28;;;81.60;;
1140;SDS011;559;48.628;8.924;2023-08-08T05:28:06;85.90;;;81.40;;
1140;SDS011;559;48.628;8.924;2023-08-08T05:30:33;86.28;;;81.68;;
1140;SDS011;559;48.628;8.924;2023-08-08T05:32:59;85.93;;;81.30;;
1140;SDS011;559;48.628;8.924;2023-08-08T05:35:26;87.38;;;82.57;;
1140;SDS011;559;48.628;8.924;2023-08-08T05:37:52;91.63;;;86.82;;
1140;SDS011;559;48.628;8.924;2023-08-08T05:40:19;85.05;;;80.50;;
1140;SDS011;559;48.628;8.924;2023-08-08T05:42:47;85.45;;;80.85;;
1140;SDS011;559;48.628;8.924;2023-08-08T05:45:13;86.95;;;82.13;;
1140;SDS011;559;48.628;8.924;2023-08-08T05:47:40;87.20;;;82.57;;
1140;SDS011;559;48.628;8.924;2023-08-08T05:50:06;87.78;;;83.20;;
1140;SDS011;559;48.628;8.924;2023-08-08T05:52:33;86.73;;;82.30;;
1140;SDS011;559;48.628;8.924;2023-08-08T05:55:00;90.28;;;85.68;;
1140;SDS011;559;48.628;8.924;2023-08-08T05:57:26;88.47;;;83.97;;
1140;SDS011;559;48.628;8.924;2023-08-08T05:59:54;86.00;;;81.60;;
1140;SDS011;559;48.628;8.924;2023-08-08T06:02:21;89.80;;;85.27;;
1140;SDS011;559;48.628;8.924;2023-08-08T06:04:47;88.93;;;84.23;;
1140;SDS011;559;48.628;8.924;2023-08-08T06:07:14;89.57;;;85.10;;
1140;SDS011;559;48.628;8.924;2023-08-08T06:09:40;92.40;;;87.90;;
1140;SDS011;559;48.628;8.924;2023-08-08T06:12:07;93.80;;;89.37;;
1140;SDS011;559;48.628;8.924;2023-08-08T06:14:34;95.73;;;91.23;;
1140;SDS011;559;48.628;8.924;2023-08-08T06:17:02;96.73;;;92.43;;
1140;SDS011;559;48.628;8.924;2023-08-08T06:19:29;100.30;;;95.87;;
1140;SDS011;559;48.628;8.924;2023-08-08T06:21:55;97.37;;;93.07;;
1140;SDS011;559;48.628;8.924;2023-08-08T06:24:22;101.20;;;96.70;;
1140;SDS011;559;48.628;8.924;2023-08-08T06:26:48;97.00;;;92.70;;
1140;SDS011;559;48.628;8.924;2023-08-08T06:29:15;100.83;;;96.43;;
1140;SDS011;559;48.628;8.924;2023-08-08T06:31:41;101.40;;;97.00;;
1140;SDS011;559;48.628;8.924;2023-08-08T06:34:09;102.30;;;98.10;;
1140;SDS011;559;48.628;8.924;2023-08-08T06:36:36;100.80;;;96.47;;
1140;SDS011;559;48.628;8.924;2023-08-08T06:39:03;103.53;;;99.03;;
1140;SDS011;559;48.628;8.924;2023-08-08T06:41:30;100.07;;;95.87;;
1140;SDS011;559;48.628;8.924;2023-08-08T06:43:57;106.37;;;101.97;;
1140;SDS011;559;48.628;8.924;2023-08-08T06:46:24;104.70;;;100.20;;
1140;SDS011;559;48.628;8.924;2023-08-08T06:48:50;103.00;;;98.80;;
1140;SDS011;559;48.628;8.924;2023-08-08T06:51:19;103.43;;;99.13;;
1140;SDS011;559;48.628;8.924;2023-08-08T06:53:46;100.50;;;96.47;;
1140;SDS011;559;48.628;8.924;2023-08-08T06:56:12;104.60;;;99.30;;
1140;SDS011;559;48.628;8.924;2023-08-08T06:58:39;100.40;;;96.53;;
1140;SDS011;559;48.628;8.924;2023-08-08T07:01:05;102.37;;;98.40;;
1140;SDS011;559;48.628;8.924;2023-08-08T07:03:31;98.60;;;95.10;;
1140;SDS011;559;48.628;8.924;2023-08-08T07:05:58;99.30;;;95.70;;
1140;SDS011;559;48.628;8.924;2023-08-08T07:08:26;100.80;;;97.20;;
1140;SDS011;559;48.628;8.924;2023-08-08T07:10:54;97.50;;;94.10;;
1140;SDS011;559;48.628;8.924;2023-08-08T07:13:20;96.97;;;93.57;;
1140;SDS011;559;48.628;8.924;2023-08-08T07:15:47;97.10;;;93.70;;
1140;SDS011;559;48.628;8.924;2023-08-08T07:18:14;95.30;;;92.00;;
1140;SDS011;559;48.628;8.924;2023-08-08T07:20:40;93.97;;;90.97;;
1140;SDS011;559;48.628;8.924;2023-08-08T07:23:07;88.90;;;86.10;;
1140;SDS011;559;48.628;8.924;2023-08-08T07:25:35;89.40;;;86.60;;
1140;SDS011;559;48.628;8.924;2023-08-08T07:28:01;83.00;;;80.70;;
1140;SDS011;559;48.628;8.924;2023-08-08T07:30:28;70.90;;;68.80;;
1140;SDS011;559;48.628;8.924;2023-08-08T07:32:55;74.37;;;72.23;;
1140;SDS011;559;48.628;8.924;2023-08-08T07:35:21;68.50;;;66.40;;
1140;SDS011;559;48.628;8.924;2023-08-08T07:37:48;59.90;;;58.30;;
1140;SDS011;559;48.628;8.924;2023-08-08T07:40:14;56.03;;;54.33;;
1140;SDS011;559;48.628;8.924;2023-08-08T07:42:44;54.83;;;53.33;;
1140;SDS011;559;48.628;8.924;2023-08-08T07:45:10;55.67;;;54.03;;
1140;SDS011;559;48.628;8.924;2023-08-08T07:47:37;49.57;;;48.10;;
1140;SDS011;559;48.628;8.924;2023-08-08T07:50:03;54.80;;;53.30;;
1140;SDS011;559;48.628;8.924;2023-08-08T07:52:33;54.57;;;52.97;;
1140;SDS011;559;48.628;8.924;2023-08-08T07:54:59;47.57;;;46.17;;
1140;SDS011;559;48.628;8.924;2023-08-08T07:57:26;42.23;;;41.13;;
1140;SDS011;559;48.628;8.924;2023-08-08T07:59:54;43.37;;;42.17;;
1140;SDS011;559;48.628;8.924;2023-08-08T08:02:20;45.90;;;44.40;;
1140;SDS011;559;48.628;8.924;2023-08-08T08:04:47;38.30;;;37.20;;
1140;SDS011;559;48.628;8.924;2023-08-08T08:07:13;32.33;;;31.43;;
1140;SDS011;559;48.628;8.924;2023-08-08T08:09:40;30.17;;;29.27;;
1140;SDS011;559;48.628;8.924;2023-08-08T08:12:08;26.30;;;25.50;;
1140;SDS011;559;48.628;8.924;2023-08-08T08:14:34;27.07;;;26.17;;
1140;SDS011;559;48.628;8.924;2023-08-08T08:17:02;24.97;;;24.27;;
1140;SDS011;559;48.628;8.924;2023-08-08T08:19:29;31.90;;;30.90;;
1140;SDS011;559;48.628;8.924;2023-08-08T08:21:56;29.63;;;28.83;;
1140;SDS011;559;48.628;8.924;2023-08-08T08:24:22;24.17;;;23.27;;
1140;SDS011;559;48.628;8.924;2023-08-08T08:26:49;27.43;;;26.73;;
1140;SDS011;559;48.628;8.924;2023-08-08T08:29:15;28.47;;;27.57;;
1140;SDS011;559;48.628;8.924;2023-08-08T08:31:42;27.83;;;26.93;;
1140;SDS011;559;48.628;8.924;2023-08-08T08:34:10;24.43;;;23.70;;
1140;SDS011;559;48.628;8.924;2023-08-08T08:36:36;27.87;;;27.00;;
1140;SDS011;559;48.628;8.924;2023-08-08T08:39:03;24.20;;;23.43;;
1140;SDS011;559;48.628;8.924;2023-08-08T08:41:30;25.40;;;24.50;;
1140;SDS011;559;48.628;8.924;2023-08-08T08:43:57;24.43;;;23.73;;
1140;SDS011;559;48.628;8.924;2023-08-08T08:46:26;26.13;;;25.23;;
1140;SDS011;559;48.628;8.924;2023-08-08T08:48:52;25.20;;;24.50;;
1140;SDS011;559;48.628;8.924;2023-08-08T08:51:22;24.33;;;23.60;;
1140;SDS011;559;48.628;8.924;2023-08-08T08:53:48;21.30;;;20.60;;
1140;SDS011;559;48.628;8.924;2023-08-08T08:56:15;20.60;;;19.90;;
1140;SDS011;559;48.628;8.924;2023-08-08T08:58:42;18.13;;;17.63;;
1140;SDS011;559;48.628;8.924;2023-08-08T09:01:09;24.27;;;23.43;;
1140;SDS011;559;48.628;8.924;2023-08-08T09:03:36;22.73;;;21.93;;
1140;SDS011;559;48.628;8.924;2023-08-08T09:06:02;21.80;;;21.10;;
1140;SDS011;559;48.628;8.924;2023-08-08T09:08:30;22.30;;;21.63;;
1140;SDS011;559;48.628;8.924;2023-08-08T09:10:57;17.17;;;16.67;;
1140;SDS011;559;48.628;8.924;2023-08-08T09:13:23;12.87;;;12.53;;
1140;SDS011;559;48.628;8.924;2023-08-08T09:15:51;14.23;;;13.73;;
1140;SDS011;559;48.628;8.924;2023-08-08T09:18:18;15.20;;;14.60;;
1140;SDS011;559;48.628;8.924;2023-08-08T09:20:46;16.17;;;15.53;;
1140;SDS011;559;48.628;8.924;2023-08-08T09:23:13;14.77;;;14.37;;
1140;SDS011;559;48.628;8.924;2023-08-08T09:25:41;11.27;;;10.97;;
1140;SDS011;559;48.628;8.924;2023-08-08T10:00:26;3.97;;;3.67;;
1140;SDS011;559;48.628;8.924;2023-08-08T10:02:55;2.03;;;1.93;;
1140;SDS011;559;48.628;8.924;2023-08-08T10:05:25;2.00;;;1.90;;
1140;SDS011;559;48.628;8.924;2023-08-08T10:07:52;4.00;;;2.30;;
1140;SDS011;559;48.628;8.924;2023-08-08T10:10:20;3.57;;;1.73;;
1140;SDS011;559;48.628;8.924;2023-08-08T10:12:47;2.60;;;2.07;;
1140;SDS011;559;48.628;8.924;2023-08-08T10:15:14;3.53;;;2.03;;
1140;SDS011;559;48.628;8.924;2023-08-08T10:17:44;2.47;;;2.30;;
1140;SDS011;559;48.628;8.924;2023-08-08T10:20:11;2.40;;;2.20;;
1140;SDS011;559;48.628;8.924;2023-08-08T10:22:41;1.70;;;1.60;;
1140;SDS011;559;48.628;8.924;2023-08-08T10:25:08;2.00;;;1.73;;
1140;SDS011;559;48.628;8.924;2023-08-08T10:27:35;5.87;;;2.30;;
1140;SDS011;559;48.628;8.924;2023-08-08T10:30:04;1.50;;;1.40;;
1140;SDS011;559;48.628;8.924;2023-08-08T10:32:45;2.70;;;1.40;;
1140;SDS011;559;48.628;8.924;2023-08-08T10:35:12;3.20;;;2.00;;
1140;SDS011;559;48.628;8.924;2023-08-08T10:37:39;1.17;;;1.00;;
1140;SDS011;559;48.628;8.924;2023-08-08T10:40:32;1.77;;;1.10;;
1140;SDS011;559;48.628;8.924;2023-08-08T10:42:58;2.40;;;1.33;;
1140;SDS011;559;48.628;8.924;2023-08-08T10:45:29;2.20;;;1.57;;
1140;SDS011;559;48.628;8.924;2023-08-08T10:48:07;1.73;;;1.23;;
1140;SDS011;559;48.628;8.924;2023-08-08T10:50:37;1.53;;;1.00;;
1140;SDS011;559;48.628;8.924;2023-08-08T10:53:04;1.77;;;1.10;;
1140;SDS011;559;48.628;8.924;2023-08-08T10:55:35;1.30;;;1.20;;
1140;SDS011;559;48.628;8.924;2023-08-08T10:58:04;2.97;;;1.00;;
1140;SDS011;559;48.628;8.924;2023-08-08T11:00:31;1.67;;;1.23;;
1140;SDS011;559;48.628;8.924;2023-08-08T11:03:02;2.10;;;0.97;;
1140;SDS011;559;48.628;8.924;2023-08-08T11:05:29;2.43;;;1.43;;
1140;SDS011;559;48.628;8.924;2023-08-08T11:07:57;3.53;;;1.07;;
1140;SDS011;559;48.628;8.924;2023-08-08T11:10:24;2.40;;;1.27;;
1140;SDS011;559;48.628;8.924;2023-08-08T11:12:56;1.20;;;1.00;;
1140;SDS011;559;48.628;8.924;2023-08-08T11:15:23;2.00;;;1.00;;
1140;SDS011;559;48.628;8.924;2023-08-08T11:17:50;2.10;;;1.30;;
1140;SDS011;559;48.628;8.924;2023-08-08T11:20:19;1.73;;;1.13;;
1140;SDS011;559;48.628;8.924;2023-08-08T11:22:50;2.90;;;1.30;;
1140;SDS011;559;48.628;8.924;2023-08-08T11:25:17;1.57;;;1.07;;
1140;SDS011;559;48.628;8.924;2023-08-08T11:27:48;1.47;;;1.00;;
1140;SDS011;559;48.628;8.924;2023-08-08T11:30:15;1.63;;;1.30;;
1140;SDS011;559;48.628;8.924;2023-08-08T11:32:41;2.03;;;1.13;;
1140;SDS011;559;48.628;8.924;2023-08-08T11:35:08;3.07;;;1.17;;
1140;SDS011;559;48.628;8.924;2023-08-08T11:37:36;2.90;;;1.30;;
1140;SDS011;559;48.628;8.924;2023-08-08T11:40:03;1.40;;;1.10;;
1140;SDS011;559;48.628;8.924;2023-08-08T11:42:31;2.20;;;1.50;;
1140;SDS011;559;48.628;8.924;2023-08-08T11:44:58;1.67;;;1.07;;
1140;SDS011;559;48.628;8.924;2023-08-08T11:47:24;1.60;;;1.23;;
1140;SDS011;559;48.628;8.924;2023-08-08T11:49:51;1.10;;;0.93;;
1140;SDS011;559;48.628;8.924;2023-08-08T11:52:18;2.20;;;0.93;;
1140;SDS011;559;48.628;8.924;2023-08-08T11:54:48;1.43;;;1.10;;
1140;SDS011;559;48.628;8.924;2023-08-08T11:57:17;1.20;;;0.90;;
1140;SDS011;559;48.628;8.924;2023-08-08T11:59:43;1.70;;;0.87;;
1140;SDS011;559;48.628;8.924;2023-08-08T12:02:10;1.80;;;1.30;;
1140;SDS011;559;48.628;8.924;2023-08-08T12:04:37;3.67;;;1.30;;
1140;SDS011;559;48.628;8.924;2023-08-08T12:07:03;1.70;;;1.40;;
1140;SDS011;559;48.628;8.924;2023-08-08T12:09:33;2.43;;;1.20;;
1140;SDS011;559;48.628;8.924;2023-08-08T12:12:02;2.03;;;1.20;;
1140;SDS011;559;48.628;8.924;2023-08-08T12:14:30;1.10;;;0.90;;
1140;SDS011;559;48.628;8.924;2023-08-08T12:17:03;3.77;;;1.10;;
1140;SDS011;559;48.628;8.924;2023-08-08T12:19:31;1.70;;;1.20;;
1140;SDS011;559;48.628;8.924;2023-08-08T12:21:59;1.67;;;1.50;;
1140;SDS011;559;48.628;8.924;2023-08-08T12:24:26;4.33;;;1.20;;
1140;SDS011;559;48.628;8.924;2023-08-08T12:26:54;3.23;;;1.87;;
1140;SDS011;559;48.628;8.924;2023-08-08T12:29:25;1.73;;;1.13;;
1140;SDS011;559;48.628;8.924;2023-08-08T12:31:55;4.13;;;1.60;;
1140;SDS011;559;48.628;8.924;2023-08-08T12:34:22;1.30;;;0.90;;
1140;SDS011;559;48.628;8.924;2023-08-08T12:36:50;1.63;;;1.53;;
1140;SDS011;559;48.628;8.924;2023-08-08T12:55:32;3.63;;;1.50;;
1140;SDS011;559;48.628;8.924;2023-08-08T12:58:01;2.90;;;1.10;;
1140;SDS011;559;48.628;8.924;2023-08-08T13:00:28;1.47;;;1.27;;
1140;SDS011;559;48.628;8.924;2023-08-08T13:02:55;1.40;;;1.30;;
1140;SDS011;559;48.628;8.924;2023-08-08T13:05:21;2.17;;;0.97;;
1140;SDS011;559;48.628;8.924;2023-08-08T13:07:48;2.07;;;1.70;;
1140;SDS011;559;48.628;8.924;2023-08-08T13:10:14;1.30;;;1.20;;
1140;SDS011;559;48.628;8.924;2023-08-08T13:12:42;1.93;;;1.13;;
1140;SDS011;559;48.628;8.924;2023-08-08T13:15:09;1.63;;;1.30;;
1140;SDS011;559;48.628;8.924;2023-08-08T13:17:36;5.37;;;1.37;;
1140;SDS011;559;48.628;8.924;2023-08-08T13:20:03;1.60;;;1.50;;
1140;SDS011;559;48.628;8.924;2023-08-08T13:22:30;1.00;;;0.80;;
1140;SDS011;559;48.628;8.924;2023-08-08T13:24:56;2.90;;;1.40;;
1140;SDS011;559;48.628;8.924;2023-08-08T13:27:23;1.90;;;1.00;;
1140;SDS011;559;48.628;8.924;2023-08-08T13:29:51;2.80;;;1.53;;
1140;SDS011;559;48.628;8.924;2023-08-08T13:32:17;1.97;;;1.10;;
1140;SDS011;559;48.628;8.924;2023-08-08T13:34:44;2.40;;;1.40;;
1140;SDS011;559;48.628;8.924;2023-08-08T13:37:10;2.93;;;1.47;;
1140;SDS011;559;48.628;8.924;2023-08-08T13:39:37;1.97;;;1.33;;
1140;SDS011;559;48.628;8.924;2023-08-08T13:42:03;1.80;;;1.43;;
1140;SDS011;559;48.628;8.924;2023-08-08T13:44:30;1.50;;;1.03;;
1140;SDS011;559;48.628;8.924;2023-08-08T13:46:58;1.60;;;1.20;;
1140;SDS011;559;48.628;8.924;2023-08-08T13:49:24;1.60;;;1.50;;
1140;SDS011;559;48.628;8.924;2023-08-08T13:51:52;1.43;;;1.30;;
1140;SDS011;559;48.628;8.924;2023-08-08T13:54:18;3.37;;;1.07;;
1140;SDS011;559;48.628;8.924;2023-08-08T13:56:45;1.10;;;0.93;;
1140;SDS011;559;48.628;8.924;2023-08-08T13:59:12;3.43;;;1.47;;
1140;SDS011;559;48.628;8.924;2023-08-08T14:01:39;1.70;;;1.40;;
1140;SDS011;559;48.628;8.924;2023-08-08T14:04:07;3.80;;;1.57;;
1140;SDS011;559;48.628;8.924;2023-08-08T14:06:33;1.83;;;1.30;;
1140;SDS011;559;48.628;8.924;2023-08-08T14:09:00;2.27;;;1.20;;
1140;SDS011;559;48.628;8.924;2023-08-08T14:11:26;1.50;;;1.40;;
1140;SDS011;559;48.628;8.924;2023-08-08T14:13:53;1.50;;;1.30;;
1140;SDS011;559;48.628;8.924;2023-08-08T14:16:19;3.17;;;1.40;;
1140;SDS011;559;48.628;8.924;2023-08-08T14:18:46;6.47;;;1.73;;
1140;SDS011;559;48.628;8.924;2023-08-08T14:21:14;2.67;;;1.97;;
1140;SDS011;559;48.628;8.924;2023-08-08T14:23:41;3.73;;;1.50;;
1140;SDS011;559;48.628;8.924;2023-08-08T14:26:09;2.50;;;1.50;;
1140;SDS011;559;48.628;8.924;2023-08-08T14:28:36;2.33;;;1.67;;
1140;SDS011;559;48.628;8.924;2023-08-08T14:31:02;1.53;;;1.10;;
1140;SDS011;559;48.628;8.924;2023-08-08T14:33:31;2.07;;;1.60;;
1140;SDS011;559;48.628;8.924;2023-08-08T14:35:57;2.07;;;1.50;;
1140;SDS011;559;48.628;8.924;2023-08-08T14:38:25;2.17;;;1.47;;
1140;SDS011;559;48.628;8.924;2023-08-08T14:40:52;1.43;;;1.00;;
1140;SDS011;559;48.628;8.924;2023-08-08T14:43:19;2.00;;;1.50;;
1140;SDS011;559;48.628;8.924;2023-08-08T14:45:45;1.60;;;1.20;;
1140;SDS011;559;48.628;8.924;2023-08-08T14:48:12;1.73;;;1.40;;
1140;SDS011;559;48.628;8.924;2023-08-08T14:50:38;3.83;;;1.50;;
1140;SDS011;559;48.628;8.924;2023-08-08T14:53:05;1.43;;;1.33;;
1140;SDS011;559;48.628;8.924;2023-08-08T14:55:33;1.73;;;1.50;;
1140;SDS011;559;48.628;8.924;2023-08-08T14:57:59;1.77;;;1.40;;
1140;SDS011;559;48.628;8.924;2023-08-08T15:00:26;1.63;;;1.50;;
1140;SDS011;559;48.628;8.924;2023-08-08T15:02:52;3.23;;;1.40;;
1140;SDS011;559;48.628;8.924;2023-08-08T15:05:19;1.43;;;1.17;;
1140;SDS011;559;48.628;8.924;2023-08-08T15:07:45;1.13;;;1.00;;
1140;SDS011;559;48.628;8.924;2023-08-08T15:10:12;1.93;;;1.00;;
1140;SDS011;559;48.628;8.924;2023-08-08T15:12:40;2.70;;;1.37;;
1140;SDS011;559;48.628;8.924;2023-08-08T15:15:07;10.53;;;1.80;;
1140;SDS011;559;48.628;8.924;2023-08-08T15:17:34;1.70;;;1.33;;
1140;SDS011;559;48.628;8.924;2023-08-08T15:20:01;1.40;;;1.23;;
1140;SDS011;559;48.628;8.924;2023-08-08T15:22:28;1.80;;;1.20;;
1140;SDS011;559;48.628;8.924;2023-08-08T15:24:54;1.83;;;1.43;;
1140;SDS011;559;48.628;8.924;2023-08-08T15:27:21;1.57;;;1.47;;
1140;SDS011;559;48.628;8.924;2023-08-08T15:29:49;2.07;;;1.73;;
1140;SDS011;559;48.628;8.924;2023-08-08T15:32:16;1.30;;;1.10;;
1140;SDS011;559;48.628;8.924;2023-08-08T15:34:42;2.97;;;1.80;;
1140;SDS011;559;48.628;8.924;2023-08-08T15:37:11;2.80;;;1.50;;
1140;SDS011;559;48.628;8.924;2023-08-08T15:39:38;4.43;;;1.90;;
1140;SDS011;559;48.628;8.924;2023-08-08T15:42:05;2.70;;;1.50;;
1140;SDS011;559;48.628;8.924;2023-08-08T15:44:31;2.27;;;1.33;;
1140;SDS011;559;48.628;8.924;2023-08-08T15:46:59;1.53;;;1.43;;
1140;SDS011;559;48.628;8.924;2023-08-08T15:49:26;2.73;;;1.60;;
1140;SDS011;559;48.628;8.924;2023-08-08T15:51:52;1.37;;;1.17;;
1140;SDS011;559;48.628;8.924;2023-08-08T15:54:21;2.60;;;1.40;;